Time;durP1;ratioP1;P1;durP2;ratioP2;P2;SDS_P1;SDS_P2;PMS_P1;PMS_P2;Temp;Humidity;BMP_temperature;BMP_pressure;BME280_temperature;BME280_humidity;BME280_pressure;Samples;Min_cycle;Max_cycle;Signal;HPM_P1;HPM_P2
2021/09/04 00:18:47;;;;;;;0.20;0.20;;;17.00;96.60;;;;;;4881891;29;20481;-92
2021/09/04 00:21:13;;;;;;;0.53;0.53;;;17.10;97.50;;;;;;4880744;29;20459;-92
2021/09/04 00:23:41;;;;;;;1.67;1.50;;;17.00;96.90;;;;;;4886900;29;20427;-93
2021/09/04 00:26:07;;;;;;;3.87;3.53;;;18.10;98.10;;;;;;4887114;29;20178;-94
2021/09/04 00:28:57;;;;;;;2.90;2.80;;;17.40;96.90;;;;;;4886141;29;20507;-92
2021/09/04 00:34:07;;;;;;;2.80;0.73;;;17.30;95.10;;;;;;4881834;29;20486;-94
2021/09/04 00:36:59;;;;;;;4.77;2.10;;;16.80;94.80;;;;;;4882836;29;20436;-92
2021/09/04 00:39:48;;;;;;;1.90;1.90;;;17.50;95.60;;;;;;4880733;29;20437;-93
2021/09/04 00:42:22;;;;;;;0.70;0.70;;;17.30;95.00;;;;;;4895026;29;20502;-92
2021/09/04 00:44:52;;;;;;;1.50;1.47;;;17.30;95.00;;;;;;4892811;29;20434;-93
2021/09/04 00:47:27;;;;;;;0.40;0.40;;;17.30;95.30;;;;;;4882455;29;20523;-94
2021/09/04 00:50:57;;;;;;;1.50;1.37;;;16.20;94.90;;;;;;4881512;29;20532;-91
2021/09/04 00:53:41;;;;;;;2.50;2.40;;;16.40;94.40;;;;;;4879059;29;20434;-93
2021/09/04 00:56:07;;;;;;;1.40;1.40;;;16.90;95.30;;;;;;4863848;29;20445;-92
2021/09/04 00:58:35;;;;;;;2.13;1.90;;;17.50;97.30;;;;;;4880840;29;20438;-92
2021/09/04 01:01:11;;;;;;;2.00;1.63;;;17.10;97.50;;;;;;4880749;29;20460;-93
2021/09/04 01:04:34;;;;;;;2.90;2.80;;;17.00;96.80;;;;;;4883950;29;20423;-92
2021/09/04 01:14:51;;;;;;;1.83;1.83;;;16.70;96.70;;;;;;5115825;23;20509;-92
2021/09/04 01:17:20;;;;;;;2.40;2.30;;;16.50;97.90;;;;;;4880064;23;20508;-92
2021/09/04 01:19:57;;;;;;;5.20;1.13;;;16.50;98.70;;;;;;4886029;29;20418;-92
2021/09/04 01:22:43;;;;;;;1.87;1.77;;;16.50;98.00;;;;;;4867498;29;20490;-93
2021/09/04 01:28:15;;;;;;;1.00;1.00;;;15.70;97.50;;;;;;5004801;23;20474;-93
2021/09/04 01:30:44;;;;;;;0.70;0.70;;;16.40;98.20;;;;;;4868122;29;20419;-93
2021/09/04 01:33:13;;;;;;;0.93;0.93;;;16.60;98.30;;;;;;4867302;29;20439;-92
2021/09/04 01:35:42;;;;;;;2.90;2.70;;;16.00;98.00;;;;;;4868099;29;20486;-93
2021/09/04 01:39:05;;;;;;;0.83;0.83;;;16.40;98.40;;;;;;4853344;29;20459;-93
2021/09/04 01:41:43;;;;;;;0.57;0.57;;;16.50;98.30;;;;;;4882031;29;20403;-93
2021/09/04 01:44:10;;;;;;;2.00;1.90;;;16.20;98.30;;;;;;4867361;29;20482;-91
2021/09/04 01:46:36;;;;;;;4.07;3.87;;;16.30;98.40;;;;;;4866406;29;20459;-92
2021/09/04 01:49:27;;;;;;;7.83;5.30;;;16.20;99.90;;;;;;4862461;29;20466;-91
2021/09/04 01:52:16;;;;;;;4.87;3.67;;;15.40;97.90;;;;;;4871302;29;20258;-92
2021/09/04 01:54:54;;;;;;;3.07;2.87;;;16.50;98.70;;;;;;4880926;29;20415;-92
2021/09/04 01:57:22;;;;;;;2.57;2.37;;;15.50;98.50;;;;;;4862307;29;20405;-91
2021/09/04 01:59:54;;;;;;;6.23;2.87;;;17.50;99.90;;;;;;4862558;29;20414;-92
2021/09/04 02:02:31;;;;;;;5.00;4.50;;;16.30;99.90;;;;;;4880839;29;20166;-92
2021/09/04 02:05:19;;;;;;;2.83;2.73;;;15.80;99.00;;;;;;4863457;29;20432;-94
2021/09/04 02:07:49;;;;;;;8.70;5.07;;;16.20;99.20;;;;;;4863277;29;20412;-92
2021/09/04 02:10:19;;;;;;;2.83;2.63;;;15.80;98.90;;;;;;4847190;29;20431;-92
2021/09/04 02:12:57;;;;;;;2.30;2.10;;;16.20;99.30;;;;;;4863946;29;20425;-92
2021/09/04 02:15:26;;;;;;;0.97;0.97;;;17.60;99.90;;;;;;4879547;29;20429;-92
2021/09/04 02:17:58;;;;;;;5.87;4.77;;;15.10;98.60;;;;;;4866033;29;20439;-92
2021/09/04 02:20:55;;;;;;;9.90;2.93;;;15.80;99.30;;;;;;4849877;29;20502;-94
2021/09/04 02:23:24;;;;;;;3.67;3.47;;;16.20;99.20;;;;;;4879703;29;20463;-92
2021/09/04 02:25:53;;;;;;;1.50;0.77;;;17.10;99.90;;;;;;4861800;29;20447;-92
2021/09/04 02:28:24;;;;;;;2.57;1.33;;;16.20;99.10;;;;;;4925497;23;20505;-93
2021/09/04 02:30:49;;;;;;;4.70;2.13;;;16.00;99.90;;;;;;4897277;29;20454;-92
2021/09/04 02:33:38;;;;;;;0.30;0.30;;;16.80;99.90;;;;;;4894114;29;20431;-93
2021/09/04 02:36:28;;;;;;;8.90;3.00;;;16.00;99.50;;;;;;4868771;29;20433;-94
2021/09/04 02:39:00;;;;;;;7.43;2.17;;;15.90;98.80;;;;;;4900131;29;20437;-91
2021/09/04 02:41:25;;;;;;;3.60;3.50;;;17.10;99.90;;;;;;4885723;29;20445;-92
2021/09/04 02:43:55;;;;;;;1.70;1.70;;;15.80;99.90;;;;;;4882498;29;20497;-93
2021/09/04 02:46:25;;;;;;;3.30;3.10;;;16.00;99.90;;;;;;4902050;29;20653;-92
2021/09/04 02:49:00;;;;;;;8.43;5.97;;;15.80;99.40;;;;;;4886794;29;20502;-92
2021/09/04 02:51:26;;;;;;;1.83;1.73;;;14.60;99.90;;;;;;4899200;29;20433;-92
2021/09/04 02:53:53;;;;;;;4.13;3.80;;;17.20;99.90;;;;;;4885020;29;20673;-93
2021/09/04 02:56:31;;;;;;;0.97;0.97;;;16.50;99.90;;;;;;4885261;29;20409;-91
2021/09/04 02:58:57;;;;;;;1.47;1.47;;;15.60;99.30;;;;;;4887228;29;20429;-92
2021/09/04 03:01:35;;;;;;;3.00;2.90;;;15.40;99.90;;;;;;4886660;29;20481;-93
2021/09/04 03:04:47;;;;;;;1.93;1.93;;;16.30;99.90;;;;;;4886607;29;20245;-92
2021/09/04 03:07:14;;;;;;;2.63;2.57;;;15.10;99.10;;;;;;4880115;29;20433;-92
2021/09/04 03:09:40;;;;;;;1.47;1.27;;;17.20;99.90;;;;;;4874014;29;20489;-92
2021/09/04 03:12:07;;;;;;;5.57;3.80;;;16.30;99.60;;;;;;4870428;29;20432;-91
2021/09/04 03:14:33;;;;;;;10.07;7.43;;;16.20;99.90;;;;;;4895768;29;20193;-91
2021/09/04 03:16:59;;;;;;;22.47;12.30;;;17.40;99.50;;;;;;4890963;29;20417;-92
2021/09/04 03:19:26;;;;;;;4.13;2.33;;;16.30;99.70;;;;;;4895760;29;20650;-92
2021/09/04 03:21:53;;;;;;;16.30;8.73;;;17.70;99.90;;;;;;4895093;29;20430;-91
2021/09/04 03:24:20;;;;;;;7.00;3.67;;;16.10;99.30;;;;;;4891500;29;20449;-91
2021/09/04 03:26:50;;;;;;;4.53;4.13;;;15.80;99.30;;;;;;4884777;29;20533;-92
2021/09/04 03:29:17;;;;;;;0.60;0.60;;;17.30;99.90;;;;;;5018850;23;20537;-89
2021/09/04 03:31:43;;;;;;;24.20;14.00;;;16.00;99.90;;;;;;4889744;29;20470;-91
2021/09/04 03:34:09;;;;;;;3.43;3.43;;;16.60;99.90;;;;;;4856532;29;20775;-93
2021/09/04 03:36:34;;;;;;;42.73;10.33;;;16.60;99.90;;;;;;4878053;29;20426;-90
2021/09/04 03:39:07;;;;;;;2.77;2.67;;;17.60;99.90;;;;;;4874093;29;20189;-92
2021/09/04 03:41:33;;;;;;;6.93;4.87;;;17.70;99.90;;;;;;4854629;29;20184;-90
2021/09/04 03:43:59;;;;;;;1.20;0.60;;;16.00;99.90;;;;;;4876054;29;20903;-92
2021/09/04 03:46:24;;;;;;;4.73;2.80;;;16.10;99.90;;;;;;4871612;29;20181;-91
2021/09/04 03:48:50;;;;;;;6.60;4.47;;;17.30;99.90;;;;;;4871111;29;20217;-91
2021/09/04 03:51:16;;;;;;;10.40;8.70;;;17.50;99.90;;;;;;4854411;29;20173;-90
2021/09/04 03:53:44;;;;;;;8.50;6.70;;;17.00;99.90;;;;;;4890241;29;20248;-91
2021/09/04 03:56:11;;;;;;;4.10;3.73;;;15.60;99.50;;;;;;4895148;29;20181;-92
2021/09/04 03:58:37;;;;;;;13.60;8.77;;;15.50;99.90;;;;;;4886401;29;20513;-88
2021/09/04 04:01:03;;;;;;;1.67;1.63;;;17.00;99.90;;;;;;4870660;29;20529;-91
2021/09/04 04:03:29;;;;;;;26.40;12.23;;;14.80;99.00;;;;;;4873440;29;20181;-90
2021/09/04 04:05:55;;;;;;;3.50;3.30;;;16.10;99.90;;;;;;4889408;29;20261;-91
2021/09/04 04:08:20;;;;;;;12.93;4.87;;;15.90;99.70;;;;;;4874453;29;20209;-89
2021/09/04 04:10:46;;;;;;;11.97;10.23;;;15.60;99.60;;;;;;4905368;29;20426;-90
2021/09/04 04:13:12;;;;;;;20.60;12.07;;;17.00;99.90;;;;;;4904480;29;20177;-90
2021/09/04 04:15:39;;;;;;;27.37;7.37;;;15.50;99.60;;;;;;4888352;29;20189;-92
2021/09/04 04:18:04;;;;;;;14.67;10.57;;;15.90;99.90;;;;;;4885165;29;20189;-90
2021/09/04 04:20:30;;;;;;;15.53;5.40;;;16.30;99.90;;;;;;4874368;29;20426;-90
2021/09/04 04:22:56;;;;;;;5.10;4.70;;;15.90;99.90;;;;;;4870282;29;20181;-92
2021/09/04 04:25:21;;;;;;;41.77;20.20;;;17.40;99.90;;;;;;4893761;29;20166;-90
2021/09/04 04:27:47;;;;;;;37.87;18.00;;;15.60;99.90;;;;;;4869883;29;20209;-90
2021/09/04 04:30:12;;;;;;;3.73;3.57;;;17.10;99.90;;;;;;4869367;29;20200;-92
2021/09/04 04:32:39;;;;;;;1.20;1.20;;;15.30;99.90;;;;;;4858083;29;20190;-91
2021/09/04 04:35:05;;;;;;;13.20;6.03;;;16.40;99.90;;;;;;4849782;29;20432;-90
2021/09/04 04:37:34;;;;;;;7.33;3.67;;;15.90;99.90;;;;;;4870883;29;20205;-92
2021/09/04 04:39:59;;;;;;;15.38;5.38;;;16.00;99.90;;;;;;4853232;29;20454;-91
2021/09/04 04:42:25;;;;;;;1.80;1.80;;;15.50;99.40;;;;;;4856332;29;20425;-93
2021/09/04 04:44:54;;;;;;;7.30;4.67;;;16.20;99.90;;;;;;4853262;29;20426;-92
2021/09/04 04:47:21;;;;;;;3.88;2.42;;;16.30;97.90;;;;;;4851746;29;20454;-91
2021/09/04 04:49:48;;;;;;;3.50;2.05;;;16.50;99.80;;;;;;4838815;29;20438;-92
2021/09/04 04:52:14;;;;;;;4.63;3.60;;;16.10;98.50;;;;;;4856623;29;20775;-92
2021/09/04 04:54:43;;;;;;;2.00;1.50;;;16.40;98.80;;;;;;4861108;29;20418;-92
2021/09/04 04:57:09;;;;;;;16.38;8.80;;;17.10;99.20;;;;;;4856360;29;20426;-92
2021/09/04 04:59:47;;;;;;;3.70;3.20;;;16.30;99.50;;;;;;4859437;29;20462;-93
2021/09/04 05:02:14;;;;;;;8.70;4.45;;;16.30;97.90;;;;;;4871484;29;20771;-93
2021/09/04 05:04:40;;;;;;;1.40;1.30;;;17.90;98.50;;;;;;4855523;29;20411;-93
2021/09/04 05:07:06;;;;;;;5.93;2.33;;;16.40;99.50;;;;;;4855530;29;20419;-92
2021/09/04 05:09:32;;;;;;;7.00;3.10;;;17.00;97.80;;;;;;4853147;29;20430;-90
2021/09/04 05:11:57;;;;;;;9.70;5.47;;;16.60;98.30;;;;;;4853822;29;20403;-92
2021/09/04 05:14:23;;;;;;;6.70;4.15;;;17.10;97.80;;;;;;4855390;29;20429;-92
2021/09/04 05:16:51;;;;;;;6.70;3.85;;;14.20;96.70;;;;;;4855092;29;20415;-94
2021/09/04 05:19:21;;;;;;;13.70;7.23;;;15.90;97.70;;;;;;4868085;29;20497;-91
2021/09/04 05:21:48;;;;;;;12.38;5.30;;;15.90;97.10;;;;;;4851430;29;20422;-91
2021/09/04 05:24:14;;;;;;;8.13;4.50;;;15.90;97.00;;;;;;4851326;29;20415;-91
2021/09/04 05:26:40;;;;;;;6.13;3.60;;;17.10;99.70;;;;;;4856268;29;20783;-92
2021/09/04 05:29:15;;;;;;;2.40;2.20;;;16.50;98.90;;;;;;4872483;29;20454;-92
2021/09/04 05:31:44;;;;;;;5.88;3.58;;;18.00;99.90;;;;;;4854322;29;20406;-92
2021/09/04 05:34:10;;;;;;;12.30;7.70;;;16.00;97.50;;;;;;4854030;29;20406;-93
2021/09/04 05:36:36;;;;;;;10.90;8.63;;;17.00;98.50;;;;;;4857421;29;20190;-89
2021/09/04 05:39:02;;;;;;;19.93;12.83;;;17.20;99.20;;;;;;4853166;29;20181;-90
2021/09/04 05:41:28;;;;;;;5.30;4.13;;;15.60;97.60;;;;;;4868751;29;20186;-91
2021/09/04 05:43:54;;;;;;;8.20;7.30;;;15.60;98.70;;;;;;4866029;29;20426;-91
2021/09/04 05:46:26;;;;;;;10.43;4.20;;;15.30;99.20;;;;;;4872297;29;20185;-92
2021/09/04 05:48:53;;;;;;;3.67;3.30;;;16.20;99.90;;;;;;4853534;29;20255;-89
2021/09/04 05:51:19;;;;;;;7.57;6.90;;;16.70;99.90;;;;;;4852832;29;20434;-93
2021/09/04 05:53:45;;;;;;;5.40;2.47;;;15.70;99.90;;;;;;4855264;29;20782;-90
2021/09/04 05:56:10;;;;;;;14.83;7.93;;;15.10;99.00;;;;;;4853636;29;20206;-90
2021/09/04 05:58:36;;;;;;;13.47;7.53;;;16.10;99.60;;;;;;4858619;29;20204;-91
2021/09/04 06:01:09;;;;;;;0.50;0.50;;;16.60;99.90;;;;;;4856447;29;20550;-92
2021/09/04 06:03:34;;;;;;;19.93;9.87;;;15.40;99.60;;;;;;4841327;29;20523;-90
2021/09/04 06:06:00;;;;;;;1.13;0.57;;;17.10;99.90;;;;;;4857576;29;20437;-91
2021/09/04 06:08:26;;;;;;;21.97;12.27;;;16.10;99.90;;;;;;4873109;29;20205;-90
2021/09/04 06:10:53;;;;;;;0.87;0.87;;;16.70;99.80;;;;;;4855751;29;20206;-93
2021/09/04 06:13:21;;;;;;;3.10;2.60;;;14.60;99.50;;;;;;4859232;29;20496;-91
2021/09/04 06:15:46;;;;;;;6.47;5.30;;;15.40;99.50;;;;;;4857810;29;20470;-91
2021/09/04 06:18:13;;;;;;;3.60;3.23;;;17.10;99.90;;;;;;4878723;29;20415;-90
2021/09/04 06:20:39;;;;;;;13.33;6.63;;;15.40;99.90;;;;;;4857066;29;20184;-90
2021/09/04 06:23:08;;;;;;;5.87;4.47;;;17.20;99.70;;;;;;4856423;29;20443;-89
2021/09/04 06:25:34;;;;;;;4.27;4.00;;;15.30;99.50;;;;;;4873736;29;20411;-92
2021/09/04 06:28:00;;;;;;;24.10;11.40;;;15.30;99.90;;;;;;4859221;29;20490;-90
2021/09/04 06:30:25;;;;;;;15.90;8.70;;;16.80;99.90;;;;;;4856434;29;20438;-89
2021/09/04 06:32:54;;;;;;;7.33;3.83;;;15.80;99.90;;;;;;4856252;29;20182;-89
2021/09/04 06:35:20;;;;;;;10.23;7.83;;;17.10;99.90;;;;;;4857722;29;20182;-91
2021/09/04 06:37:51;;;;;;;22.73;11.60;;;16.20;99.90;;;;;;4843031;29;20430;-90
2021/09/04 06:40:18;;;;;;;1.00;0.97;;;15.00;99.70;;;;;;4859375;29;20249;-92
2021/09/04 06:42:45;;;;;;;0.80;0.80;;;14.90;99.90;;;;;;4859978;29;20441;-92
2021/09/04 06:45:33;;;;;;;7.97;5.30;;;14.80;99.90;;;;;;4865361;29;20494;-89
2021/09/04 06:50:37;;;;;;;3.47;3.47;;;15.20;98.90;;;;;;2998597;23;10001678;-90
2021/09/04 06:53:03;;;;;;;29.70;15.10;;;15.30;98.50;;;;;;4911396;23;20255;-89
2021/09/04 06:58:02;;;;;;;0.37;0.37;;;15.20;98.80;;;;;;5029047;23;20233;-90
2021/09/04 07:00:49;;;;;;;2.93;2.63;;;16.20;99.40;;;;;;4904528;29;20414;-90
2021/09/04 07:06:09;;;;;;;2.50;2.40;;;15.40;98.00;;;;;;4915444;23;20477;-89
2021/09/04 07:09:05;;;;;;;;;;;;;;;;;;;;;
2021/09/04 07:11:36;;;;;;;5.82;5.00;;;16.60;99.00;;;;;;4689790;29;10001297;-92
2021/09/04 07:14:04;;;;;;;2.77;2.73;;;15.90;97.60;;;;;;4873972;29;20420;-91
2021/09/04 07:16:30;;;;;;;7.53;4.80;;;16.90;99.30;;;;;;4872958;29;20174;-88
2021/09/04 07:19:01;;;;;;;3.70;3.60;;;15.40;98.00;;;;;;4870511;29;20425;-90
2021/09/04 07:21:27;;;;;;;10.27;8.37;;;15.40;97.80;;;;;;4872186;29;20457;-90
2021/09/04 07:23:53;;;;;;;4.37;3.60;;;15.30;98.40;;;;;;4874573;29;20927;-89
2021/09/04 07:26:19;;;;;;;0.40;0.40;;;17.00;99.30;;;;;;4875781;29;20190;-91
2021/09/04 07:28:46;;;;;;;2.53;2.50;;;16.80;99.90;;;;;;4875197;29;20222;-90
2021/09/04 07:31:17;;;;;;;3.93;3.50;;;15.40;98.50;;;;;;4875528;29;20829;-92
2021/09/04 07:33:47;;;;;;;2.80;2.70;;;15.70;98.70;;;;;;4876433;29;20240;-90
2021/09/04 07:36:16;;;;;;;0.83;0.30;;;15.40;98.10;;;;;;4879475;29;20423;-90
2021/09/04 07:38:42;;;;;;;5.60;4.47;;;15.50;98.90;;;;;;4877128;29;20521;-89
2021/09/04 07:41:10;;;;;;;1.23;1.23;;;16.10;99.30;;;;;;4863237;29;20490;-92
2021/09/04 07:43:36;;;;;;;1.70;1.70;;;16.80;99.40;;;;;;4879178;29;20177;-90
2021/09/04 07:46:03;;;;;;;0.30;0.30;;;16.70;98.60;;;;;;4876905;29;20439;-90
2021/09/04 07:48:29;;;;;;;3.17;2.43;;;15.80;96.70;;;;;;4877101;29;20221;-90
2021/09/04 07:50:55;;;;;;;6.33;5.90;;;15.90;97.80;;;;;;4874455;29;20415;-91
2021/09/04 07:53:26;;;;;;;8.93;4.47;;;16.20;97.20;;;;;;4876110;29;20195;-91
2021/09/04 07:56:04;;;;;;;3.87;3.67;;;16.00;97.60;;;;;;4881489;29;20435;-91
2021/09/04 07:58:30;;;;;;;6.10;5.50;;;16.40;96.30;;;;;;4882121;29;20929;-92
2021/09/04 08:00:56;;;;;;;2.63;2.13;;;17.00;97.50;;;;;;4880320;29;20439;-89
2021/09/04 08:03:25;;;;;;;2.47;2.27;;;15.80;97.50;;;;;;4870403;29;20274;-90
2021/09/04 08:05:51;;;;;;;1.80;1.80;;;16.50;97.20;;;;;;4871243;29;20945;-90
2021/09/04 08:08:18;;;;;;;3.60;3.40;;;16.00;97.10;;;;;;4866545;29;20480;-90
2021/09/04 08:10:44;;;;;;;6.60;5.90;;;15.80;96.10;;;;;;4910157;29;20541;-90
2021/09/04 08:13:14;;;;;;;11.93;7.10;;;16.50;97.20;;;;;;4906797;29;20429;-90
2021/09/04 08:15:48;;;;;;;0.50;0.50;;;17.20;97.40;;;;;;4908428;29;20453;-91
2021/09/04 08:18:14;;;;;;;3.30;3.00;;;16.00;96.90;;;;;;4893240;29;20456;-90
2021/09/04 08:20:40;;;;;;;6.43;6.03;;;16.20;96.20;;;;;;4913150;29;20425;-89
2021/09/04 08:23:07;;;;;;;2.37;2.37;;;16.20;96.50;;;;;;4913624;29;20774;-88
2021/09/04 08:25:36;;;;;;;0.70;0.70;;;17.70;97.40;;;;;;4910862;29;20520;-93
2021/09/04 08:28:06;;;;;;;1.57;1.57;;;16.50;95.60;;;;;;4913249;29;20862;-91
2021/09/04 08:30:37;;;;;;;5.60;2.00;;;16.70;94.80;;;;;;4902453;29;20433;-93
2021/09/04 08:33:03;;;;;;;4.33;1.20;;;16.40;94.60;;;;;;4901821;29;20496;-92
2021/09/04 08:35:29;;;;;;;1.87;1.73;;;17.20;95.20;;;;;;4905734;29;20493;-89
2021/09/04 08:37:55;;;;;;;18.93;10.30;;;16.50;94.90;;;;;;4904931;29;20417;-91
2021/09/04 08:40:21;;;;;;;10.93;8.73;;;16.60;93.70;;;;;;4903995;29;20593;-92
2021/09/04 08:42:47;;;;;;;8.57;7.60;;;17.50;95.80;;;;;;4904203;29;20469;-92
2021/09/04 08:45:13;;;;;;;8.60;3.93;;;18.20;96.00;;;;;;4906853;29;20437;-89
2021/09/04 08:47:42;;;;;;;3.80;3.60;;;17.20;95.60;;;;;;4904638;29;20431;-89
2021/09/04 08:50:10;;;;;;;1.87;1.87;;;16.60;94.70;;;;;;4906396;29;20207;-90
2021/09/04 08:52:36;;;;;;;3.07;2.60;;;16.40;95.20;;;;;;4907014;29;21197;-91
2021/09/04 08:55:02;;;;;;;1.53;1.43;;;17.40;95.70;;;;;;4905145;29;20543;-90
2021/09/04 08:57:28;;;;;;;1.13;1.13;;;16.60;94.90;;;;;;4906538;29;20509;-89
2021/09/04 08:59:58;;;;;;;3.13;1.70;;;18.20;95.40;;;;;;4898672;29;20457;-88
2021/09/04 09:02:28;;;;;;;7.03;6.43;;;16.80;93.50;;;;;;4883425;29;20173;-88
2021/09/04 09:05:05;;;;;;;16.73;9.00;;;16.00;93.70;;;;;;4879610;29;20500;-89
2021/09/04 09:07:38;;;;;;;3.33;3.07;;;16.50;94.20;;;;;;4884920;29;20433;-87
2021/09/04 09:10:04;;;;;;;7.63;6.20;;;16.50;94.60;;;;;;4874010;29;20848;-87
2021/09/04 09:12:31;;;;;;;2.27;1.47;;;16.80;95.30;;;;;;4877508;29;20926;-88
2021/09/04 09:15:00;;;;;;;1.60;1.40;;;16.40;93.50;;;;;;4862501;29;20498;-91
2021/09/04 09:17:28;;;;;;;3.67;3.57;;;16.60;92.80;;;;;;4869393;29;20943;-86
2021/09/04 09:20:05;;;;;;;0.20;0.20;;;18.80;94.70;;;;;;4880361;29;20458;-90
2021/09/04 09:22:43;;;;;;;5.50;5.10;;;17.60;92.30;;;;;;4863308;29;20426;-91
2021/09/04 09:25:16;;;;;;;2.40;2.30;;;17.80;91.10;;;;;;4884897;29;20449;-87
2021/09/04 09:28:03;;;;;;;0.97;0.97;;;17.60;91.50;;;;;;4886364;29;20426;-86
2021/09/04 09:30:37;;;;;;;10.80;6.30;;;17.60;91.50;;;;;;4887618;29;20509;-89
2021/09/04 09:33:12;;;;;;;1.40;1.03;;;18.50;91.60;;;;;;4884961;29;20418;-90
2021/09/04 09:35:52;;;;;;;10.60;7.20;;;17.80;91.00;;;;;;4887704;29;20441;-85
2021/09/04 09:38:21;;;;;;;19.43;8.93;;;17.90;90.20;;;;;;4884198;29;20449;-88
2021/09/04 09:40:47;;;;;;;0.60;0.60;;;17.70;91.00;;;;;;4885251;29;20511;-90
2021/09/04 09:43:29;;;;;;;1.90;1.90;;;17.60;91.40;;;;;;4890031;29;20430;-93
2021/09/04 09:46:04;;;;;;;15.07;8.53;;;17.70;90.70;;;;;;4889501;29;20426;-88
2021/09/04 09:48:37;;;;;;;1.07;1.07;;;20.10;91.40;;;;;;4885292;29;20564;-89
2021/09/04 09:51:05;;;;;;;4.43;4.20;;;18.40;90.00;;;;;;4885056;29;20421;-86
2021/09/04 09:53:31;;;;;;;6.20;4.53;;;18.50;89.40;;;;;;4886538;29;20439;-89
2021/09/04 09:55:59;;;;;;;4.97;2.20;;;20.20;90.60;;;;;;4887775;29;20413;-91
2021/09/04 09:58:26;;;;;;;0.47;0.47;;;20.30;88.50;;;;;;4868852;29;20187;-87
2021/09/04 10:00:54;;;;;;;1.53;1.53;;;20.10;87.80;;;;;;4885600;29;20414;-90
2021/09/04 10:03:21;;;;;;;2.93;2.67;;;20.00;86.90;;;;;;4894093;29;20510;-87
2021/09/04 10:05:50;;;;;;;0.57;0.57;;;19.40;86.40;;;;;;4885816;29;20899;-90
2021/09/04 10:08:17;;;;;;;11.13;4.03;;;17.70;86.00;;;;;;4888133;29;20535;-90
2021/09/04 10:10:52;;;;;;;1.37;1.37;;;20.10;86.30;;;;;;4888016;29;20436;-90
2021/09/04 10:13:20;;;;;;;11.43;7.30;;;19.10;84.90;;;;;;4886267;29;20458;-89
2021/09/04 10:15:49;;;;;;;9.90;5.67;;;17.90;85.10;;;;;;4887864;29;20449;-89
2021/09/04 10:18:16;;;;;;;6.13;2.40;;;18.60;87.20;;;;;;4901757;29;20413;-89
2021/09/04 10:20:45;;;;;;;7.90;5.27;;;18.70;86.40;;;;;;4560343;29;10000439;-89
2021/09/04 10:23:34;;;;;;;7.43;4.43;;;19.00;87.60;;;;;;4881787;29;20347;-88
2021/09/04 10:26:29;;;;;;;7.20;6.57;;;20.80;87.70;;;;;;4884190;29;20484;-84
2021/09/04 10:29:07;;;;;;;1.60;1.50;;;19.10;84.20;;;;;;4885209;29;20480;-88
2021/09/04 10:31:58;;;;;;;0.63;0.63;;;20.40;90.20;;;;;;4885718;29;20398;-89
2021/09/04 10:34:37;;;;;;;8.20;5.53;;;19.20;84.90;;;;;;4883797;29;20430;-88
2021/09/04 10:37:15;;;;;;;4.60;3.00;;;19.30;83.80;;;;;;4880891;29;20576;-89
2021/09/04 10:39:50;;;;;;;4.90;2.10;;;19.80;84.50;;;;;;4881771;29;20501;-90
2021/09/04 10:42:34;;;;;;;0.20;0.20;;;19.50;84.10;;;;;;4867622;29;20426;-92
2021/09/04 10:45:03;;;;;;;6.20;4.93;;;20.50;83.60;;;;;;4882470;29;20425;-91
2021/09/04 10:47:47;;;;;;;8.17;6.53;;;19.70;80.70;;;;;;4881879;29;20514;-89
2021/09/04 10:50:15;;;;;;;5.23;4.77;;;19.30;81.80;;;;;;4884895;29;20491;-89
2021/09/04 10:52:46;;;;;;;3.20;2.80;;;20.40;84.00;;;;;;4883441;29;20445;-90
2021/09/04 10:55:19;;;;;;;2.07;2.00;;;19.40;82.50;;;;;;4885525;29;20433;-85
2021/09/04 10:57:48;;;;;;;6.97;4.70;;;20.00;80.50;;;;;;4884887;29;20457;-90
2021/09/04 11:00:40;;;;;;;11.43;2.00;;;20.00;78.90;;;;;;4886336;29;20940;-87
2021/09/04 11:03:08;;;;;;;1.50;1.50;;;20.30;80.10;;;;;;4881948;29;20618;-86
2021/09/04 11:05:37;;;;;;;11.13;3.57;;;20.60;77.30;;;;;;4884998;29;20521;-92
2021/09/04 11:08:05;;;;;;;1.40;1.40;;;21.80;78.40;;;;;;4888698;29;20861;-87
2021/09/04 11:10:32;;;;;;;2.77;2.57;;;20.60;76.60;;;;;;4890385;29;20784;-87
2021/09/04 11:13:13;;;;;;;2.43;0.80;;;20.90;76.10;;;;;;4889916;29;20437;-89
2021/09/04 11:15:45;;;;;;;1.70;1.70;;;21.70;74.20;;;;;;4888121;29;20426;-91
2021/09/04 11:18:18;;;;;;;2.10;2.10;;;21.80;70.60;;;;;;4889253;29;20494;-88
2021/09/04 11:20:50;;;;;;;5.97;4.37;;;24.00;75.10;;;;;;4887143;29;20425;-87
2021/09/04 11:23:25;;;;;;;5.50;4.10;;;22.60;74.80;;;;;;4887054;29;20426;-88
2021/09/04 11:25:52;;;;;;;8.73;7.13;;;20.10;70.40;;;;;;4891477;29;20425;-89
2021/09/04 11:28:33;;;;;;;11.93;6.13;;;21.20;72.60;;;;;;4886802;29;20596;-92
2021/09/04 11:31:00;;;;;;;4.10;3.87;;;22.40;73.30;;;;;;4894107;29;20470;-87
2021/09/04 11:33:26;;;;;;;5.90;2.80;;;22.80;78.40;;;;;;4900530;29;20449;-84
2021/09/04 11:35:52;;;;;;;10.13;5.07;;;21.50;69.80;;;;;;4898139;29;20445;-87
2021/09/04 11:38:19;;;;;;;5.47;5.00;;;22.00;70.60;;;;;;4891264;29;20429;-86
2021/09/04 11:40:45;;;;;;;1.13;0.87;;;23.10;69.20;;;;;;4892597;29;20487;-87
2021/09/04 11:43:14;;;;;;;1.17;1.17;;;23.20;70.10;;;;;;4875213;29;20942;-88
2021/09/04 11:45:41;;;;;;;2.53;2.37;;;22.30;71.30;;;;;;4884000;29;20444;-89
2021/09/04 11:48:11;;;;;;;2.57;1.73;;;23.60;73.10;;;;;;4885734;29;20426;-88
2021/09/04 11:50:40;;;;;;;1.23;1.23;;;21.90;67.80;;;;;;4888064;29;20526;-87
2021/09/04 11:53:11;;;;;;;8.13;4.30;;;;;;;;;;4885057;29;20895;-88
2021/09/04 11:55:37;;;;;;;4.50;4.13;;;22.70;63.80;;;;;;4886308;29;20425;-83
2021/09/04 11:58:09;;;;;;;7.00;2.93;;;22.10;67.00;;;;;;4884999;29;20414;-90
2021/09/04 12:00:39;;;;;;;1.73;1.50;;;23.10;81.30;;;;;;4886504;29;20926;-87
2021/09/04 12:03:08;;;;;;;2.90;1.90;;;23.70;59.80;;;;;;4886779;29;20809;-92
2021/09/04 12:05:43;;;;;;;7.37;3.23;;;24.90;59.60;;;;;;4888805;29;20488;-91
2021/09/04 12:08:12;;;;;;;1.70;1.70;;;24.10;58.70;;;;;;4897292;29;20488;-87
2021/09/04 12:10:40;;;;;;;15.20;10.57;;;24.60;58.60;;;;;;4906493;29;20911;-88
2021/09/04 12:13:11;;;;;;;5.40;4.03;;;24.00;57.50;;;;;;4904169;29;20456;-89
2021/09/04 12:15:43;;;;;;;3.40;2.40;;;23.90;58.50;;;;;;4889006;29;20439;-89
2021/09/04 12:18:11;;;;;;;10.53;3.90;;;24.80;58.00;;;;;;4903791;29;20452;-88
2021/09/04 12:20:47;;;;;;;4.10;3.33;;;24.70;57.30;;;;;;4905804;29;20428;-90
2021/09/04 12:23:25;;;;;;;13.37;10.80;;;25.10;56.50;;;;;;4888473;29;20500;-91
2021/09/04 12:25:53;;;;;;;2.10;2.00;;;;;;;;;;4889099;29;20424;-89
2021/09/04 12:28:24;;;;;;;6.50;6.03;;;;;;;;;;4890481;29;20452;-86
2021/09/04 12:31:10;;;;;;;9.53;6.43;;;;;;;;;;4904680;29;20453;-87
2021/09/04 12:33:54;;;;;;;7.27;4.63;;;;;;;;;;4885934;29;20417;-89
2021/09/04 12:36:26;;;;;;;5.67;5.37;;;;;;;;;;4882551;29;20546;-88
2021/09/04 12:38:54;;;;;;;1.13;1.13;;;24.60;56.80;;;;;;4546361;29;10000476;-87
2021/09/04 12:41:28;;;;;;;3.73;2.77;;;25.40;56.90;;;;;;4885513;29;20169;-91
2021/09/04 12:44:03;;;;;;;3.43;3.13;;;25.70;55.10;;;;;;4883773;29;20756;-86
2021/09/04 12:46:33;;;;;;;5.90;5.50;;;25.90;54.70;;;;;;4883848;29;20429;-92
2021/09/04 12:49:32;;;;;;;3.37;3.07;;;27.30;54.30;;;;;;4886595;29;20472;-89
2021/09/04 12:52:08;;;;;;;3.23;2.93;;;27.30;52.50;;;;;;4886781;29;20426;-92
2021/09/04 12:54:50;;;;;;;1.67;1.67;;;27.40;51.60;;;;;;4883407;29;20444;-86
2021/09/04 12:57:27;;;;;;;6.23;2.70;;;27.80;51.30;;;;;;4882933;29;20489;-90
2021/09/04 13:00:04;;;;;;;1.57;1.57;;;28.10;50.70;;;;;;4885899;29;20473;-86
2021/09/04 13:02:30;;;;;;;4.50;4.00;;;28.10;50.50;;;;;;4884396;29;20448;-90
2021/09/04 13:04:58;;;;;;;7.82;7.05;;;27.60;49.80;;;;;;4589092;29;10000344;-89
2021/09/04 13:07:38;;;;;;;16.10;10.03;;;27.90;49.50;;;;;;4881134;29;20397;-89
2021/09/04 13:10:06;;;;;;;18.50;10.20;;;27.20;49.50;;;;;;4863172;29;20549;-91
2021/09/04 13:12:32;;;;;;;17.20;10.30;;;27.10;51.00;;;;;;4863899;29;20513;-91
2021/09/04 13:14:58;;;;;;;3.30;2.73;;;26.90;52.00;;;;;;4863601;29;21021;-91
2021/09/04 13:17:24;;;;;;;21.63;14.47;;;27.90;53.00;;;;;;4866313;29;20676;-89
2021/09/04 13:19:49;;;;;;;21.53;8.80;;;26.50;51.80;;;;;;4869871;29;20204;-91
2021/09/04 13:22:15;;;;;;;7.13;2.00;;;27.30;54.30;;;;;;4867749;29;20189;-87
2021/09/04 13:24:41;;;;;;;3.77;3.43;;;26.30;52.90;;;;;;4875220;29;20249;-90
2021/09/04 13:27:09;;;;;;;9.30;7.73;;;27.70;51.10;;;;;;4882205;29;20272;-92
2021/09/04 13:29:38;;;;;;;23.43;16.67;;;29.00;50.70;;;;;;4885029;29;21080;-92
2021/09/04 13:32:04;;;;;;;10.70;9.77;;;26.90;51.20;;;;;;4885782;29;20414;-89
2021/09/04 13:34:30;;;;;;;36.90;4.70;;;26.50;52.00;;;;;;4884749;29;20422;-89
2021/09/04 13:37:12;;;;;;;4.10;3.50;;;27.10;52.40;;;;;;4871042;29;20448;-91
2021/09/04 13:39:45;;;;;;;7.97;7.20;;;27.70;51.00;;;;;;4886257;29;20182;-92
2021/09/04 13:42:19;;;;;;;9.17;4.93;;;26.90;51.10;;;;;;4882879;29;20506;-90
2021/09/04 13:44:45;;;;;;;1.50;1.43;;;26.80;52.70;;;;;;4887602;29;20409;-89